LJPZ

Details ICAO LJPZ (POW)
Name PORTOROZ
Region Slovenia
Timezone Europe/Ljubljana (UTC+2.0)
Plans Departing 49
Arriving 93
Stats Elevation 7 ft / 2 m (AMSL)
Location 45.472445° 13.615681°
Runways 1
Magnetic Variation 3.502° E
Sunrise 2018-06-23 03:18:35 UTC / 2018-06-23 05:18:35 Local
Sunset 2018-06-23 18:59:18 UTC / 2018-06-23 20:59:18 Local
Advertisement - Login to hide

Runways

ID Width Length Bearing (true) Bearing (mag) Surface Threshold Offset Overrun Length
15 98 ft / 30 m 3,939 ft / 1,201 m 151.28° 147.78° Asphalt 0 ft / 0 m 0 ft / 0 m
33 98 ft / 30 m 3,939 ft / 1,201 m 331.29° 327.79° Asphalt 751 ft / 229 m 0 ft / 0 m

Map

Weather


0- 5 10 15 20 25 30 35+ Temperature / ° C

Clouds and Precipitation
Forecast for 2018-06-23 12:00 UTC. Updated 2 hours ago

Ground ~20,000 ft ~40,000 ft Winds

METAR

LJPZ 231130Z 30006KT 260V350 9999 FEW060 24/05 Q1020

TAF

Not found

Frequencies

Tower 129.32 MHz Portoroz TWR
Approach 129.32 MHz Portoroz APP
Warning: Do not use this data for real-world aviation or navigation. No guarantee of current accuracy is given.